Portada
METAR-TAF:

METAR-TAF

Aeropuertos :

Base Aérea de Alcantarilla

Murcia, España

latitud: 37-57N, longitud: 001-14W, altitud: 75 m

Observación

El informe se hizo hace 1 hora y 6 minutos, a las 17:00 UTC
Viento 4 kt del norte-noroeste
Temperatura 14°C
Humedad 77%
Presión 1014 hPa
Visibilidad 10 km o más
Escasas nubes a una altura de 5000 ft

METAR: LERI 211700Z 33004KT 9999 FEW050 14/10 Q1014 NOSIG

Hora: 19:06 (18:06 UTC)

Pronóstico

El informe se hizo hace 4 horas y 6 minutos, a las 14:00 UTC
Pronóstico válido del 21 a las 15 UTC al 21 a las 24 UTC
Viento 3 kt con dirección variable
Visibilidad 10 km o más
Escasas nubes a una altura de 4000 ft
Probabilidad 30% :
Temporalmente
del 21 a las 15 UTC al 21 a las 18 UTC
Visibilidad: 4000 m
Cielo nuboso a una altura de 1400 ft
lluvia

TAF: LERI 211400Z 2115/2124 VRB03KT 9999 FEW040 PROB30 TEMPO 2115/2118 4000 RA BKN014

Observaciones y pronósticos meteorológicos de más de 4000 aeropuertos (mensajes METAR y TAF).

Los puntos amarillos y rojos representan las estaciones disponibles.

Ponga el ratón en el punto deseado para ver el nombre de la estación.

Haga clic para ver las observaciones y los pronósticos meteorológicos.

Para cambiar el mapa : haga clic en los botones verdes con una cruz de color negro para hacer un zoom, en el botón verde con un guión para alejar o en las flechas verdes para mapas adyacentes.


METAR-TAF: